Time;durP1;ratioP1;P1;durP2;ratioP2;P2;SDS_P1;SDS_P2;PMS_P1;PMS_P2;Temp;Humidity;BMP_temperature;BMP_pressure;BME280_temperature;BME280_humidity;BME280_pressure;Samples;Min_cycle;Max_cycle;Signal;HPM_P1;HPM_P2
2022/01/07 00:01:54;;;;;;;;;;;;;;;6.08;67.17;95141.38;5115694;28;1044;-48
2022/01/07 00:04:20;;;;;;;;;;;;;;;6.02;67.28;95148.06;5115634;28;1032;-48
2022/01/07 00:06:46;;;;;;;;;;;;;;;5.98;67.60;95146.66;5115637;28;1160;-48
2022/01/07 00:09:12;;;;;;;;;;;;;;;5.87;67.62;95141.41;5115223;28;1914;-48
2022/01/07 00:11:38;;;;;;;;;;;;;;;5.89;67.28;95144.75;5115498;28;1049;-48
2022/01/07 00:14:04;;;;;;;;;;;;;;;5.88;67.65;95145.75;5115496;28;1028;-48
2022/01/07 00:16:30;;;;;;;;;;;;;;;5.96;67.22;95140.66;5115302;28;1096;-47
2022/01/07 00:18:57;;;;;;;;;;;;;;;6.04;66.85;95145.28;5115634;28;1040;-48
2022/01/07 00:21:23;;;;;;;;;;;;;;;5.92;67.29;95148.97;5115426;28;1052;-48
2022/01/07 00:23:49;;;;;;;;;;;;;;;5.88;67.30;95151.06;5115299;27;1033;-48
2022/01/07 00:26:15;;;;;;;;;;;;;;;5.90;67.04;95149.13;5115112;28;1025;-48
2022/01/07 00:28:41;;;;;;;;;;;;;;;5.97;66.69;95158.22;5115159;28;2152;-48
2022/01/07 00:31:08;;;;;;;;;;;;;;;5.81;67.14;95163.16;5114777;28;1055;-48
2022/01/07 00:33:34;;;;;;;;;;;;;;;5.78;67.37;95166.91;5115443;28;1024;-48
2022/01/07 00:36:00;;;;;;;;;;;;;;;5.82;67.10;95160.41;5115104;28;1063;-48
2022/01/07 00:38:30;;;;;;;;;;;;;;;5.76;67.20;95168.03;5114990;28;1091;-48
2022/01/07 00:40:56;;;;;;;;;;;;;;;5.67;67.75;95175.81;5114941;28;1039;-47
2022/01/07 00:43:22;;;;;;;;;;;;;;;5.65;67.62;95188.34;5115097;28;1058;-48
2022/01/07 00:45:48;;;;;;;;;;;;;;;5.65;67.30;95190.16;5114759;28;1066;-48
2022/01/07 00:48:14;;;;;;;;;;;;;;;5.66;67.34;95190.03;5114971;28;1906;-48
2022/01/07 00:50:41;;;;;;;;;;;;;;;5.67;67.50;95194.38;5114890;27;1020;-48
2022/01/07 00:53:07;;;;;;;;;;;;;;;5.53;68.06;95193.84;5114696;28;1033;-48
2022/01/07 00:55:35;;;;;;;;;;;;;;;5.47;68.23;95205.81;5114679;28;1003;-48
2022/01/07 00:58:01;;;;;;;;;;;;;;;5.55;67.32;95205.16;5114743;28;1007;-48
2022/01/07 01:00:27;;;;;;;;;;;;;;;5.42;68.02;95208.00;5114299;28;1122;-48
2022/01/07 01:02:55;;;;;;;;;;;;;;;5.36;68.55;95206.69;5114535;28;1867;-47
2022/01/07 01:05:22;;;;;;;;;;;;;;;5.40;67.92;95210.78;5114725;28;1024;-48
2022/01/07 01:07:48;;;;;;;;;;;;;;;5.38;67.97;95219.84;5093823;28;1980;-48
2022/01/07 01:10:15;;;;;;;;;;;;;;;5.36;68.32;95219.97;5094023;28;1036;-47
2022/01/07 01:12:43;;;;;;;;;;;;;;;5.23;68.79;95206.03;5093993;28;1060;-48
2022/01/07 01:15:10;;;;;;;;;;;;;;;5.38;68.10;95209.22;5093843;28;1099;-48
2022/01/07 01:17:36;;;;;;;;;;;;;;;5.40;67.72;95225.84;5094062;28;1024;-47
2022/01/07 01:20:03;;;;;;;;;;;;;;;5.36;67.78;95219.13;5093985;28;979;-47
2022/01/07 01:22:29;;;;;;;;;;;;;;;5.21;68.10;95227.38;5093809;28;969;-47
2022/01/07 01:24:55;;;;;;;;;;;;;;;5.25;68.19;95227.97;5093901;28;1035;-48
2022/01/07 01:27:22;;;;;;;;;;;;;;;5.19;68.16;95221.34;5093191;28;1987;-48
2022/01/07 01:29:48;;;;;;;;;;;;;;;5.00;69.20;95234.44;5093530;28;1047;-48
2022/01/07 01:32:16;;;;;;;;;;;;;;;4.98;69.14;95223.97;5093724;28;975;-48
2022/01/07 01:34:42;;;;;;;;;;;;;;;5.07;68.92;95230.31;5093883;28;984;-47
2022/01/07 01:37:08;;;;;;;;;;;;;;;5.11;68.91;95239.72;5093809;28;1045;-48
2022/01/07 01:39:34;;;;;;;;;;;;;;;5.19;68.40;95245.22;5093757;28;1055;-47
2022/01/07 01:42:01;;;;;;;;;;;;;;;5.09;68.99;95239.00;5093290;28;1100;-48
2022/01/07 01:44:27;;;;;;;;;;;;;;;5.04;69.17;95236.69;5093578;28;1076;-48
2022/01/07 01:46:53;;;;;;;;;;;;;;;5.08;68.84;95242.59;5093560;28;1004;-47
2022/01/07 01:49:20;;;;;;;;;;;;;;;5.04;69.04;95243.81;5093498;28;1914;-48
2022/01/07 01:51:47;;;;;;;;;;;;;;;4.96;69.78;95233.84;5093369;28;961;-48
2022/01/07 01:54:13;;;;;;;;;;;;;;;5.06;69.17;95229.47;5093518;28;1300;-48
2022/01/07 01:56:41;;;;;;;;;;;;;;;5.07;69.33;95235.63;5093334;28;1001;-48
2022/01/07 01:59:07;;;;;;;;;;;;;;;4.98;69.76;95239.03;5093202;28;1033;-47
2022/01/07 02:01:34;;;;;;;;;;;;;;;4.96;69.87;95241.78;5093471;28;1047;-48
2022/01/07 02:04:00;;;;;;;;;;;;;;;5.02;69.46;95251.06;5093473;28;989;-48
2022/01/07 02:06:28;;;;;;;;;;;;;;;5.11;68.99;95249.47;5101952;28;1157;-48
2022/01/07 02:08:54;;;;;;;;;;;;;;;5.20;68.44;95254.88;5113380;28;1906;-48
2022/01/07 02:11:20;;;;;;;;;;;;;;;5.31;68.00;95246.00;5113635;28;1095;-48
2022/01/07 02:13:48;;;;;;;;;;;;;;;5.25;67.82;95249.16;5113414;28;906;-48
2022/01/07 02:16:15;;;;;;;;;;;;;;;5.28;68.15;95255.06;5113790;28;936;-48
2022/01/07 02:18:42;;;;;;;;;;;;;;;5.39;67.69;95248.06;5112386;28;937;-47
2022/01/07 02:21:08;;;;;;;;;;;;;;;5.37;68.05;95253.47;5113519;28;976;-48
2022/01/07 02:23:36;;;;;;;;;;;;;;;5.30;68.41;95254.09;5113430;28;996;-48
2022/01/07 02:26:02;;;;;;;;;;;;;;;5.32;68.46;95263.59;5113426;28;952;-47
2022/01/07 02:28:29;;;;;;;;;;;;;;;5.20;68.88;95261.97;5113257;28;1910;-48
2022/01/07 02:30:55;;;;;;;;;;;;;;;5.12;69.02;95259.94;5112206;28;1039;-47
2022/01/07 02:33:21;;;;;;;;;;;;;;;5.09;69.00;95252.25;5113320;28;2153;-48
2022/01/07 02:35:47;;;;;;;;;;;;;;;5.05;69.22;95270.19;5113519;28;1000;-48
2022/01/07 02:38:15;;;;;;;;;;;;;;;5.19;68.93;95269.06;5113206;28;1147;-47
2022/01/07 02:40:41;;;;;;;;;;;;;;;5.21;68.67;95276.91;5115582;28;1045;-47
2022/01/07 02:43:08;;;;;;;;;;;;;;;5.08;69.12;95275.25;5117099;28;1078;-47
2022/01/07 02:45:34;;;;;;;;;;;;;;;5.21;68.43;95277.72;5117550;28;965;-48
2022/01/07 02:48:03;;;;;;;;;;;;;;;5.26;68.18;95286.16;5117149;28;1992;-47
2022/01/07 02:50:38;;;;;;;;;;;;;;;5.19;68.39;95278.84;5117289;28;1043;-48
2022/01/07 02:53:07;;;;;;;;;;;;;;;5.14;69.08;95281.00;5116988;28;1064;-48
2022/01/07 02:55:34;;;;;;;;;;;;;;;5.08;68.78;95275.25;5117114;27;1035;-47
2022/01/07 02:58:00;;;;;;;;;;;;;;;5.11;68.71;95284.75;5117023;28;1070;-47
2022/01/07 03:00:27;;;;;;;;;;;;;;;5.05;69.11;95285.28;5117076;28;1007;-48
2022/01/07 03:02:54;;;;;;;;;;;;;;;5.05;67.94;95285.28;5116881;28;1019;-48
2022/01/07 03:05:20;;;;;;;;;;;;;;;5.03;68.26;95282.75;5116963;28;1042;-48
2022/01/07 03:07:49;;;;;;;;;;;;;;;5.09;68.13;95289.34;5116403;28;1988;-48
2022/01/07 03:10:19;;;;;;;;;;;;;;;5.15;67.84;95286.19;5116739;28;1011;-48
2022/01/07 03:12:45;;;;;;;;;;;;;;;5.10;67.61;95293.66;5116632;28;1056;-48
2022/01/07 03:15:12;;;;;;;;;;;;;;;5.11;67.56;95287.41;5116821;28;971;-48
2022/01/07 03:17:40;;;;;;;;;;;;;;;5.15;67.44;95285.38;5116727;28;944;-48
2022/01/07 03:20:07;;;;;;;;;;;;;;;5.10;67.28;95283.06;5116453;28;1092;-48
2022/01/07 03:22:33;;;;;;;;;;;;;;;5.22;66.60;95291.84;5116596;28;1000;-48
2022/01/07 03:24:59;;;;;;;;;;;;;;;5.32;66.73;95286.63;5116249;28;920;-48
2022/01/07 03:27:25;;;;;;;;;;;;;;;5.34;66.41;95293.50;5116614;28;1980;-48
2022/01/07 03:29:51;;;;;;;;;;;;;;;5.23;67.31;95290.88;5116136;28;1051;-48
2022/01/07 03:32:17;;;;;;;;;;;;;;;5.16;67.02;95295.84;5116398;28;1103;-48
2022/01/07 03:34:43;;;;;;;;;;;;;;;5.13;67.21;95289.94;5116067;28;912;-48
2022/01/07 03:37:09;;;;;;;;;;;;;;;5.09;67.44;95295.47;5116175;28;1064;-48
2022/01/07 03:39:35;;;;;;;;;;;;;;;5.07;66.74;95300.06;5116060;28;1036;-48
2022/01/07 03:42:01;;;;;;;;;;;;;;;5.18;66.17;95307.16;5116528;27;1052;-48
2022/01/07 03:44:27;;;;;;;;;;;;;;;5.10;66.22;95301.63;5116011;28;1080;-48
2022/01/07 03:46:53;;;;;;;;;;;;;;;5.05;66.22;95301.16;5116394;28;2021;-48
2022/01/07 03:49:19;;;;;;;;;;;;;;;5.06;66.17;95308.13;5115803;28;1902;-48
2022/01/07 03:51:45;;;;;;;;;;;;;;;5.06;65.80;95302.84;5115532;28;1881;-48
2022/01/07 03:54:11;;;;;;;;;;;;;;;4.79;66.52;95304.09;5115998;28;1054;-48
2022/01/07 03:56:38;;;;;;;;;;;;;;;4.70;67.03;95312.75;5116115;28;986;-48
2022/01/07 03:59:04;;;;;;;;;;;;;;;4.71;66.89;95311.81;5115439;28;1052;-48
2022/01/07 04:01:30;;;;;;;;;;;;;;;4.67;66.98;95315.66;5115995;28;1055;-47
2022/01/07 04:03:56;;;;;;;;;;;;;;;4.70;66.96;95310.09;5115615;28;1045;-48
2022/01/07 04:06:22;;;;;;;;;;;;;;;4.80;66.47;95320.81;5115581;28;1168;-48
2022/01/07 04:08:49;;;;;;;;;;;;;;;4.89;66.25;95314.78;5115356;28;1997;-48
2022/01/07 04:11:17;;;;;;;;;;;;;;;4.82;66.14;95324.22;5115668;28;848;-48
2022/01/07 04:13:44;;;;;;;;;;;;;;;4.72;66.58;95321.41;5115643;28;1051;-48
2022/01/07 04:16:11;;;;;;;;;;;;;;;4.77;66.35;95323.72;5131441;27;1047;-48
2022/01/07 04:18:37;;;;;;;;;;;;;;;4.74;66.17;95319.50;5115483;28;1012;-48
2022/01/07 04:21:03;;;;;;;;;;;;;;;4.81;65.78;95323.34;5115185;28;985;-48
2022/01/07 04:23:29;;;;;;;;;;;;;;;4.65;66.46;95323.72;5115650;28;1055;-48
2022/01/07 04:25:55;;;;;;;;;;;;;;;4.66;66.32;95324.56;5115359;28;1156;-48
2022/01/07 04:28:21;;;;;;;;;;;;;;;4.56;66.64;95336.84;5115232;28;2067;-48
2022/01/07 04:30:47;;;;;;;;;;;;;;;4.45;67.09;95322.63;5115043;28;1032;-47
2022/01/07 04:33:20;;;;;;;;;;;;;;;4.54;66.55;95333.47;5115123;28;1080;-48
2022/01/07 04:35:47;;;;;;;;;;;;;;;4.57;66.53;95334.09;5114822;28;1107;-48
2022/01/07 04:38:13;;;;;;;;;;;;;;;4.52;66.47;95335.41;5115261;28;996;-48
2022/01/07 04:40:39;;;;;;;;;;;;;;;4.46;66.61;95331.44;5115099;28;1056;-48
2022/01/07 04:43:06;;;;;;;;;;;;;;;4.41;66.54;95336.22;5115123;28;1047;-48
2022/01/07 04:45:32;;;;;;;;;;;;;;;4.55;65.99;95343.09;5114829;28;1084;-48
2022/01/07 04:47:59;;;;;;;;;;;;;;;4.52;65.96;95344.19;5114873;28;1988;-48
2022/01/07 04:50:25;;;;;;;;;;;;;;;4.52;65.81;95352.13;5114564;28;996;-48
2022/01/07 04:52:52;;;;;;;;;;;;;;;4.57;65.26;95357.06;5113770;28;1039;-48
2022/01/07 04:55:20;;;;;;;;;;;;;;;4.51;65.41;95363.66;5114796;28;1069;-48
2022/01/07 04:57:46;;;;;;;;;;;;;;;4.46;65.57;95365.84;5115007;28;1040;-47
2022/01/07 05:00:15;;;;;;;;;;;;;;;4.35;65.50;95366.66;5114376;28;997;-48
2022/01/07 05:02:42;;;;;;;;;;;;;;;4.44;65.44;95370.41;5114042;28;924;-48
2022/01/07 05:05:08;;;;;;;;;;;;;;;4.32;65.75;95374.00;5114165;28;1092;-47
2022/01/07 05:07:37;;;;;;;;;;;;;;;4.19;66.32;95379.38;5114468;28;1917;-48
2022/01/07 05:10:04;;;;;;;;;;;;;;;4.21;66.43;95380.09;5114443;28;1055;-48
2022/01/07 05:12:30;;;;;;;;;;;;;;;4.27;66.36;95380.50;5114780;28;972;-48
2022/01/07 05:14:56;;;;;;;;;;;;;;;4.17;66.35;95376.84;5114271;28;1012;-48
2022/01/07 05:17:22;;;;;;;;;;;;;;;4.17;66.26;95374.19;5114450;28;1031;-48
2022/01/07 05:19:48;;;;;;;;;;;;;;;4.26;65.79;95377.97;5114218;28;1032;-48
2022/01/07 05:22:14;;;;;;;;;;;;;;;4.28;65.71;95378.69;5114320;28;1059;-48
2022/01/07 05:24:40;;;;;;;;;;;;;;;4.22;65.75;95376.50;5114257;28;1092;-48
2022/01/07 05:27:06;;;;;;;;;;;;;;;4.21;65.45;95380.97;5114215;27;980;-48
2022/01/07 05:29:35;;;;;;;;;;;;;;;4.10;65.80;95387.06;5113939;28;1973;-48
2022/01/07 05:32:04;;;;;;;;;;;;;;;4.10;65.82;95387.06;5113943;28;1051;-48
2022/01/07 05:34:31;;;;;;;;;;;;;;;4.10;65.81;95395.00;5113959;28;1032;-48
2022/01/07 05:36:57;;;;;;;;;;;;;;;4.04;66.29;95390.19;5112823;28;980;-48
2022/01/07 05:39:23;;;;;;;;;;;;;;;4.13;66.13;95399.22;5114269;28;1008;-47
2022/01/07 05:41:49;;;;;;;;;;;;;;;4.14;65.76;95400.91;5114018;28;1095;-48
2022/01/07 05:44:15;;;;;;;;;;;;;;;4.20;65.63;95404.91;5114020;28;1158;-48
2022/01/07 05:46:41;;;;;;;;;;;;;;;4.15;65.84;95407.03;5113850;28;1040;-48
2022/01/07 05:49:07;;;;;;;;;;;;;;;4.15;65.99;95407.03;5113694;28;1906;-48
2022/01/07 05:51:33;;;;;;;;;;;;;;;4.05;66.59;95415.66;5113717;28;1235;-48
2022/01/07 05:53:59;;;;;;;;;;;;;;;4.07;66.66;95413.75;5113713;28;1029;-48
2022/01/07 05:56:26;;;;;;;;;;;;;;;4.07;66.40;95405.81;5113936;28;1035;-48
2022/01/07 05:58:52;;;;;;;;;;;;;;;4.09;66.00;95409.19;5113514;28;1084;-48
2022/01/07 06:01:18;;;;;;;;;;;;;;;4.16;66.31;95414.88;5113594;28;1049;-48
2022/01/07 06:03:45;;;;;;;;;;;;;;;4.13;66.31;95416.91;5113573;28;977;-48
2022/01/07 06:06:11;;;;;;;;;;;;;;;4.06;67.34;95412.06;5113628;28;1161;-47
2022/01/07 06:08:37;;;;;;;;;;;;;;;4.00;66.83;95420.44;5113480;28;1988;-47
2022/01/07 06:11:03;;;;;;;;;;;;;;;4.04;66.63;95416.66;5113580;28;977;-48
2022/01/07 06:13:29;;;;;;;;;;;;;;;4.19;66.85;95421.72;5113914;28;992;-48
2022/01/07 06:15:55;;;;;;;;;;;;;;;4.32;66.23;95417.19;5117690;28;1050;-48
2022/01/07 06:18:21;;;;;;;;;;;;;;;4.44;65.56;95418.91;5117717;28;1000;-48
2022/01/07 06:20:47;;;;;;;;;;;;;;;4.45;65.82;95419.75;5117725;28;1880;-48
2022/01/07 06:23:13;;;;;;;;;;;;;;;4.39;65.88;95423.72;5117714;28;988;-48
2022/01/07 06:25:40;;;;;;;;;;;;;;;4.26;66.35;95425.59;5117581;28;1057;-48
2022/01/07 06:28:06;;;;;;;;;;;;;;;4.22;66.86;95417.03;5117410;27;1984;-47
2022/01/07 06:30:32;;;;;;;;;;;;;;;4.18;67.48;95417.41;5117507;28;976;-48
2022/01/07 06:32:58;;;;;;;;;;;;;;;4.16;67.68;95425.47;5117213;28;921;-48
2022/01/07 06:35:24;;;;;;;;;;;;;;;4.02;68.34;95425.63;5117791;27;1040;-48
2022/01/07 06:37:50;;;;;;;;;;;;;;;4.01;68.48;95421.31;5117506;28;1059;-48
2022/01/07 06:40:16;;;;;;;;;;;;;;;4.03;68.59;95429.97;5117598;28;1062;-48
2022/01/07 06:42:42;;;;;;;;;;;;;;;4.18;68.17;95431.47;5117196;28;1079;-48
2022/01/07 06:45:08;;;;;;;;;;;;;;;4.44;67.12;95431.28;5117328;28;1008;-48
2022/01/07 06:47:34;;;;;;;;;;;;;;;4.62;66.38;95437.00;5116858;28;1987;-48
2022/01/07 06:50:00;;;;;;;;;;;;;;;4.56;66.65;95440.13;5117109;28;1091;-48
2022/01/07 06:52:27;;;;;;;;;;;;;;;4.57;66.70;95444.44;5117053;28;1064;-48
2022/01/07 06:54:53;;;;;;;;;;;;;;;4.67;66.44;95437.50;5117258;28;965;-47
2022/01/07 06:57:19;;;;;;;;;;;;;;;4.72;65.96;95437.13;5117388;28;1000;-48
2022/01/07 06:59:45;;;;;;;;;;;;;;;4.82;65.74;95446.91;5116894;28;985;-48
2022/01/07 07:02:12;;;;;;;;;;;;;;;4.94;65.07;95441.63;5116723;27;1021;-48
2022/01/07 07:04:38;;;;;;;;;;;;;;;4.98;64.97;95438.59;5117081;28;1055;-48
2022/01/07 07:07:04;;;;;;;;;;;;;;;5.04;64.98;95438.13;5116460;28;1169;-48
2022/01/07 07:09:30;;;;;;;;;;;;;;;5.01;64.91;95440.19;5116854;28;1976;-48
2022/01/07 07:11:56;;;;;;;;;;;;;;;5.06;64.60;95435.34;5116669;28;981;-48
2022/01/07 07:14:22;;;;;;;;;;;;;;;5.08;64.42;95436.06;5116878;28;1048;-48
2022/01/07 07:16:48;;;;;;;;;;;;;;;5.15;64.10;95437.28;5116523;27;1024;-48
2022/01/07 07:19:14;;;;;;;;;;;;;;;5.22;63.69;95440.31;5116544;28;1037;-47
2022/01/07 07:21:40;;;;;;;;;;;;;;;5.29;64.09;95430.88;5116768;28;1059;-48
2022/01/07 07:24:06;;;;;;;;;;;;;;;5.35;63.58;95435.72;5116607;28;1080;-48
2022/01/07 07:26:32;;;;;;;;;;;;;;;5.51;62.50;95432.66;5115674;28;1167;-48
2022/01/07 07:28:58;;;;;;;;;;;;;;;5.66;62.02;95428.78;5116035;27;1995;-48
2022/01/07 07:31:24;;;;;;;;;;;;;;;5.84;61.43;95421.16;5116399;28;1016;-48
2022/01/07 07:36:30;;;;;;;;;;;;;;;6.33;59.53;95426.03;5116607;28;1001;-48
2022/01/07 07:39:01;;;;;;;;;;;;;;;6.17;59.56;95423.84;5116257;28;1004;-48
2022/01/07 07:41:28;;;;;;;;;;;;;;;6.55;59.18;95420.59;5116344;28;1124;-48
2022/01/07 07:43:56;;;;;;;;;;;;;;;6.62;58.15;95420.91;5115798;28;1011;-48
2022/01/07 07:46:22;;;;;;;;;;;;;;;6.62;58.13;95419.13;5116411;28;964;-48
2022/01/07 07:48:48;;;;;;;;;;;;;;;6.78;57.74;95421.31;5116051;28;2040;-48
2022/01/07 07:51:15;;;;;;;;;;;;;;;6.83;57.94;95421.75;5116139;28;1079;-48
2022/01/07 07:53:41;;;;;;;;;;;;;;;6.99;58.35;95421.28;5115917;28;1024;-48
2022/01/07 07:56:08;;;;;;;;;;;;;;;6.99;58.95;95431.06;5115979;28;988;-48
2022/01/07 07:58:34;;;;;;;;;;;;;;;6.76;59.38;95428.56;5115681;28;1107;-48
2022/01/07 08:01:01;;;;;;;;;;;;;;;6.48;61.05;95435.38;5115989;28;968;-48
2022/01/07 08:03:27;;;;;;;;;;;;;;;6.42;60.66;95444.69;5115767;28;1028;-47
2022/01/07 08:05:53;;;;;;;;;;;;;;;6.60;60.13;95434.34;5115864;28;1157;-48
2022/01/07 08:08:19;;;;;;;;;;;;;;;6.63;61.24;95434.06;5115403;28;1909;-48
2022/01/07 08:10:49;;;;;;;;;;;;;;;6.54;61.11;95441.97;5115790;28;1135;-48
2022/01/07 08:16:03;;;;;;;;;;;;;;;6.30;61.65;95437.78;5115760;28;977;-48
2022/01/07 08:18:32;;;;;;;;;;;;;;;6.31;61.61;95431.47;5115495;28;972;-48
2022/01/07 08:21:05;;;;;;;;;;;;;;;6.31;61.69;95428.81;5115568;28;1035;-47
2022/01/07 08:23:32;;;;;;;;;;;;;;;6.52;60.03;95428.81;5115304;28;927;-48
2022/01/07 08:25:58;;;;;;;;;;;;;;;6.68;58.96;95428.38;5115620;28;1046;-48
2022/01/07 08:28:28;;;;;;;;;;;;;;;6.75;58.50;95437.50;5115340;28;2017;-48
2022/01/07 08:36:18;;;;;;;;;;;;;;;6.67;58.03;95428.50;5115212;28;960;-47
2022/01/07 08:38:44;;;;;;;;;;;;;;;6.76;57.80;95433.88;5114182;28;1164;-48
2022/01/07 08:41:11;;;;;;;;;;;;;;;6.70;58.25;95438.91;5114989;28;1135;-48
2022/01/07 08:43:37;;;;;;;;;;;;;;;6.73;57.58;95439.44;5114972;28;1001;-48
2022/01/07 08:46:07;;;;;;;;;;;;;;;6.74;57.66;95427.03;5115057;28;992;-48
2022/01/07 08:48:35;;;;;;;;;;;;;;;6.75;58.21;95431.34;5114858;28;1909;-48
2022/01/07 08:51:02;;;;;;;;;;;;;;;6.79;57.53;95428.31;5114757;28;976;-48
2022/01/07 08:53:28;;;;;;;;;;;;;;;6.81;58.39;95429.03;5114941;28;1029;-48
2022/01/07 08:55:55;;;;;;;;;;;;;;;6.82;58.02;95422.72;5114936;28;1008;-48
2022/01/07 08:58:21;;;;;;;;;;;;;;;6.90;57.50;95430.03;5114750;28;968;-48
2022/01/07 09:00:48;;;;;;;;;;;;;;;7.04;58.09;95421.72;5114518;28;1056;-48
2022/01/07 09:03:14;;;;;;;;;;;;;;;7.11;56.88;95416.69;5114398;28;989;-48
2022/01/07 09:05:41;;;;;;;;;;;;;;;6.95;57.36;95419.84;5114458;28;1192;-48
2022/01/07 09:08:09;;;;;;;;;;;;;;;6.96;57.35;95413.56;5114326;28;1987;-48
2022/01/07 09:10:35;;;;;;;;;;;;;;;6.94;57.57;95412.00;5114603;28;1037;-48
2022/01/07 09:13:02;;;;;;;;;;;;;;;6.89;57.48;95409.75;5114576;28;976;-48
2022/01/07 09:15:28;;;;;;;;;;;;;;;6.97;57.55;95407.28;5114262;28;992;-48
2022/01/07 09:17:54;;;;;;;;;;;;;;;7.05;57.49;95409.25;5114181;28;1047;-48
2022/01/07 09:20:24;;;;;;;;;;;;;;;7.11;57.26;95397.25;5114421;28;1059;-48
2022/01/07 09:22:50;;;;;;;;;;;;;;;7.04;57.87;95408.44;5114322;28;1136;-48
2022/01/07 09:25:16;;;;;;;;;;;;;;;7.18;57.80;95398.41;5114320;28;980;-48
2022/01/07 09:27:42;;;;;;;;;;;;;;;7.16;57.83;95397.69;5114255;28;1906;-48
2022/01/07 09:30:10;;;;;;;;;;;;;;;6.97;57.52;95398.47;5113879;27;932;-48
2022/01/07 09:32:37;;;;;;;;;;;;;;;7.02;58.31;95391.78;5114074;28;1062;-48
2022/01/07 09:35:04;;;;;;;;;;;;;;;6.92;58.37;95392.69;5114139;28;1088;-48
2022/01/07 09:37:30;;;;;;;;;;;;;;;6.97;58.45;95393.97;5114327;28;972;-48
2022/01/07 09:39:57;;;;;;;;;;;;;;;7.09;57.81;95396.53;5113919;28;969;-48
2022/01/07 09:42:23;;;;;;;;;;;;;;;7.12;56.92;95399.78;5114104;28;1003;-48
2022/01/07 09:44:49;;;;;;;;;;;;;;;7.13;57.02;95390.84;5113884;28;984;-48
2022/01/07 09:47:17;;;;;;;;;;;;;;;7.07;57.39;95393.19;5113782;28;1039;-48
2022/01/07 09:49:43;;;;;;;;;;;;;;;6.95;57.77;95392.44;5113637;28;1968;-48
2022/01/07 09:52:10;;;;;;;;;;;;;;;6.95;57.33;95387.94;5114014;28;1055;-48
2022/01/07 09:54:37;;;;;;;;;;;;;;;6.97;58.60;95390.47;5113779;28;1020;-48
2022/01/07 09:57:06;;;;;;;;;;;;;;;7.06;57.45;95375.53;5113733;28;1017;-48
2022/01/07 09:59:33;;;;;;;;;;;;;;;7.02;57.20;95375.00;5113429;28;1039;-49
2022/01/07 10:05:21;;;;;;;;;;;;;;;7.20;56.24;95370.69;5113760;28;669;-48
2022/01/07 10:07:47;;;;;;;;;;;;;;;7.17;56.02;95368.31;5113560;28;1917;-48
2022/01/07 10:10:17;;;;;;;;;;;;;;;7.11;56.52;95362.69;5113444;28;1072;-48
2022/01/07 10:13:00;;;;;;;;;;;;;;;7.12;57.08;95364.38;5113642;28;1112;-49
2022/01/07 10:15:30;;;;;;;;;;;;;;;7.15;56.35;95362.31;5113456;28;1122;-48
2022/01/07 10:18:00;;;;;;;;;;;;;;;7.26;56.59;95361.34;5113707;28;980;-48
2022/01/07 10:20:28;;;;;;;;;;;;;;;7.30;56.10;95365.41;5112286;28;1040;-48
2022/01/07 10:22:56;;;;;;;;;;;;;;;7.29;55.51;95362.91;5113530;28;1111;-48
2022/01/07 10:25:24;;;;;;;;;;;;;;;7.43;55.15;95349.19;5113612;28;1028;-48
2022/01/07 10:27:50;;;;;;;;;;;;;;;7.54;55.48;95356.22;5113688;28;1906;-49
2022/01/07 10:30:19;;;;;;;;;;;;;;;7.63;55.72;95348.25;5113203;28;969;-48
2022/01/07 10:32:45;;;;;;;;;;;;;;;7.65;55.33;95349.94;5113603;28;1047;-48
2022/01/07 10:35:14;;;;;;;;;;;;;;;7.69;55.43;95344.19;5113188;28;1067;-48
2022/01/07 10:37:49;;;;;;;;;;;;;;;7.72;54.55;95345.72;5113390;28;1060;-48
2022/01/07 10:40:41;;;;;;;;;;;;;;;7.55;55.37;95345.44;5113358;28;1011;-49
2022/01/07 10:43:12;;;;;;;;;;;;;;;7.59;55.63;95343.34;5110586;28;1065;-49
2022/01/07 10:45:39;;;;;;;;;;;;;;;7.72;55.17;95343.94;5113194;28;1056;-49
2022/01/07 10:48:08;;;;;;;;;;;;;;;7.79;55.62;95338.88;5113175;28;1909;-49
2022/01/07 10:50:39;;;;;;;;;;;;;;;7.62;55.48;95338.56;5113346;28;1048;-48
2022/01/07 10:53:20;;;;;;;;;;;;;;;7.57;55.46;95342.63;5113365;28;1130;-48
2022/01/07 10:56:06;;;;;;;;;;;;;;;7.69;54.53;95346.03;5113074;28;1076;-48
2022/01/07 10:58:51;;;;;;;;;;;;;;;7.68;55.73;95342.50;5113210;28;1038;-48
2022/01/07 11:01:20;;;;;;;;;;;;;;;7.50;55.22;95334.38;5114439;28;1867;-48
2022/01/07 11:03:47;;;;;;;;;;;;;;;7.54;55.61;95337.59;5117163;28;1021;-48
2022/01/07 11:06:13;;;;;;;;;;;;;;;7.70;56.27;95340.56;5117105;27;1164;-48
2022/01/07 11:08:40;;;;;;;;;;;;;;;7.81;55.41;95326.28;5117191;28;1910;-48
2022/01/07 11:11:06;;;;;;;;;;;;;;;7.86;55.31;95328.53;5116551;28;1028;-49
2022/01/07 11:13:34;;;;;;;;;;;;;;;8.07;55.13;95318.56;5116836;28;1993;-48
2022/01/07 11:16:04;;;;;;;;;;;;;;;8.21;55.19;95320.81;5116645;28;1031;-48
2022/01/07 11:18:31;;;;;;;;;;;;;;;8.49;54.46;95320.06;5116917;28;976;-48
2022/01/07 11:20:59;;;;;;;;;;;;;;;8.62;53.99;95314.44;5116554;28;1044;-48
2022/01/07 11:23:25;;;;;;;;;;;;;;;8.63;53.45;95314.25;5116572;28;1065;-48
2022/01/07 11:26:01;;;;;;;;;;;;;;;8.86;52.82;95311.22;5116551;28;1080;-48
2022/01/07 11:28:28;;;;;;;;;;;;;;;8.94;53.07;95312.19;5116605;28;1902;-48
2022/01/07 11:31:11;;;;;;;;;;;;;;;9.18;51.94;95313.47;5116097;28;1027;-48
2022/01/07 11:33:37;;;;;;;;;;;;;;;9.14;52.48;95301.41;5116473;28;1053;-48
2022/01/07 11:36:03;;;;;;;;;;;;;;;9.11;52.77;95301.75;5116071;28;968;-48
2022/01/07 11:38:34;;;;;;;;;;;;;;;9.30;51.17;95296.28;5116576;28;1052;-48
2022/01/07 11:41:01;;;;;;;;;;;;;;;9.44;51.53;95296.75;5115053;28;1016;-48
2022/01/07 11:43:32;;;;;;;;;;;;;;;9.36;51.87;95292.19;5116257;28;1217;-48
2022/01/07 11:45:59;;;;;;;;;;;;;;;9.15;53.17;95297.78;5115998;28;984;-48
2022/01/07 11:48:27;;;;;;;;;;;;;;;9.18;52.78;95293.00;5116095;28;1897;-48
2022/01/07 11:50:56;;;;;;;;;;;;;;;9.13;53.33;95294.44;5116192;28;1047;-48
2022/01/07 11:53:23;;;;;;;;;;;;;;;9.06;53.02;95288.81;5116226;28;973;-48
2022/01/07 11:55:50;;;;;;;;;;;;;;;8.98;53.81;95291.41;5115004;28;1056;-48
2022/01/07 11:58:17;;;;;;;;;;;;;;;8.83;53.37;95285.72;5115807;28;1017;-49
2022/01/07 12:00:52;;;;;;;;;;;;;;;8.64;54.54;95288.47;5115736;28;1084;-48
2022/01/07 12:03:33;;;;;;;;;;;;;;;8.64;53.85;95283.97;5115728;28;1042;-48
2022/01/07 12:06:00;;;;;;;;;;;;;;;8.94;53.58;95287.34;5115886;28;1204;-48
2022/01/07 12:09:05;;;;;;;;;;;;;;;8.91;54.22;95290.31;5115421;28;1907;-49
2022/01/07 12:11:36;;;;;;;;;;;;;;;8.77;54.63;95281.81;5115388;28;1007;-48
2022/01/07 12:14:03;;;;;;;;;;;;;;;8.87;54.63;95283.59;5115739;28;996;-48
2022/01/07 12:16:31;;;;;;;;;;;;;;;8.75;54.59;95281.13;5115453;28;1080;-49
2022/01/07 12:19:12;;;;;;;;;;;;;;;8.67;54.79;95272.16;5115529;28;1101;-48
2022/01/07 12:21:44;;;;;;;;;;;;;;;8.62;54.81;95274.44;5115470;28;1051;-48
2022/01/07 12:24:12;;;;;;;;;;;;;;;8.63;55.37;95268.13;5115299;28;1108;-48
2022/01/07 12:26:38;;;;;;;;;;;;;;;8.48;55.54;95263.28;5115383;28;976;-49
2022/01/07 12:29:04;;;;;;;;;;;;;;;8.46;55.47;95264.38;5115132;28;1985;-48
2022/01/07 12:31:30;;;;;;;;;;;;;;;8.47;55.77;95258.91;5115367;28;1026;-48
2022/01/07 12:33:58;;;;;;;;;;;;;;;8.82;55.93;95254.72;5115288;28;1047;-48
2022/01/07 12:36:25;;;;;;;;;;;;;;;8.89;55.21;95254.97;5115173;28;1031;-48
2022/01/07 12:39:07;;;;;;;;;;;;;;;9.00;54.87;95249.41;5114944;28;1048;-48
2022/01/07 12:41:34;;;;;;;;;;;;;;;9.17;53.80;95253.94;5115240;28;964;-48
2022/01/07 12:44:10;;;;;;;;;;;;;;;9.23;53.78;95252.50;5114970;28;1043;-49
2022/01/07 12:46:37;;;;;;;;;;;;;;;8.90;55.21;95245.97;5115058;28;1053;-48
2022/01/07 12:49:04;;;;;;;;;;;;;;;8.55;55.84;95248.34;5114708;27;1914;-48
2022/01/07 12:51:30;;;;;;;;;;;;;;;8.59;56.26;95243.56;5114897;28;2041;-48
2022/01/07 12:54:01;;;;;;;;;;;;;;;8.62;55.55;95245.13;5115070;28;1055;-48
2022/01/07 12:56:34;;;;;;;;;;;;;;;8.69;56.12;95246.19;5115040;28;957;-48
2022/01/07 12:59:10;;;;;;;;;;;;;;;8.60;56.70;95251.44;5114297;28;1099;-48
2022/01/07 13:01:36;;;;;;;;;;;;;;;8.47;57.37;95242.09;5114769;28;1043;-48
2022/01/07 13:04:13;;;;;;;;;;;;;;;8.33;57.15;95238.88;5114385;28;1044;-48
2022/01/07 13:06:40;;;;;;;;;;;;;;;8.18;57.27;95245.66;5114751;28;1169;-48
2022/01/07 13:09:06;;;;;;;;;;;;;;;8.30;56.92;95243.66;5114208;28;1988;-48
2022/01/07 13:11:32;;;;;;;;;;;;;;;8.34;57.15;95240.56;5114700;28;964;-48
2022/01/07 13:14:05;;;;;;;;;;;;;;;8.29;57.81;95242.84;5114689;28;1071;-48
2022/01/07 13:16:32;;;;;;;;;;;;;;;8.28;57.56;95243.81;5114439;28;1016;-48
2022/01/07 13:19:03;;;;;;;;;;;;;;;8.17;57.95;95241.31;5114410;28;968;-48
2022/01/07 13:21:29;;;;;;;;;;;;;;;8.17;57.73;95242.13;5114567;28;1043;-48
2022/01/07 13:23:56;;;;;;;;;;;;;;;8.32;57.43;95231.88;5113625;28;1004;-48
2022/01/07 13:26:23;;;;;;;;;;;;;;;8.35;57.36;95236.91;5114396;28;964;-48